Overview Statistics Trail Chart Weather Telemetry Raw packets
 

This is the latest recevied telemetry packets stored in our database for station/object IU3ISP-20. If no packets are shown the sender has not sent any telemetry packets the latest 10 day(s).

Telemetry packets is used to share measurements like repeteater parameters, battery voltage, radiation readings (or any other measurements).

<< 1 2 3 4 >>
Time Press* Temp.in* Hum* QNH* Temp.out*
1788565233 968.7 hPa 27.7 C deg 0 % 1023.4 hPa 0 C deg
1788563403 968.9 hPa 27.7 C deg 0 % 1023.6 hPa 0 C deg
1788561573 968.9 hPa 27.7 C deg 0 % 1023.6 hPa 0 C deg
1788559742 968.9 hPa 27.7 C deg 0 % 1023.6 hPa 0 C deg
1788557912 968.8 hPa 27.8 C deg 0 % 1023.5 hPa 0 C deg
1788556082 968.9 hPa 27.9 C deg 0 % 1023.6 hPa 0 C deg
1788552422 969.1 hPa 27.9 C deg 0 % 1023.8 hPa 0 C deg
1788550592 969.1 hPa 27.8 C deg 0 % 1023.8 hPa 0 C deg
1788548762 969 hPa 27.9 C deg 0 % 1023.6 hPa 0 C deg
1788546932 968.8 hPa 27.9 C deg 0 % 1023.5 hPa 0 C deg
1788545102 968.5 hPa 27.9 C deg 0 % 1023.2 hPa 0 C deg
1788543272 968.2 hPa 27.9 C deg 0 % 1022.9 hPa 0 C deg
1788541442 968.3 hPa 27.9 C deg 0 % 1022.9 hPa 0 C deg
1788539612 968.4 hPa 28 C deg 0 % 1023 hPa 0 C deg
1788537782 968.3 hPa 28 C deg 0 % 1023 hPa 0 C deg
1788535952 968.5 hPa 27.9 C deg 0 % 1023.1 hPa 0 C deg
1788534122 968.7 hPa 27.9 C deg 0 % 1023.4 hPa 0 C deg
1788532291 968.9 hPa 27.8 C deg 0 % 1023.6 hPa 0 C deg
1788530461 969.1 hPa 27.8 C deg 0 % 1023.8 hPa 0 C deg
1788528631 969.4 hPa 27.7 C deg 0 % 1024.1 hPa 0 C deg
1788526801 969.5 hPa 27.6 C deg 0 % 1024.3 hPa 0 C deg
1788524997 969.8 hPa 27.5 C deg 0 % 1024.5 hPa 0 C deg
1788523141 970 hPa 27.4 C deg 0 % 1024.8 hPa 0 C deg
1788521311 970.4 hPa 27.3 C deg 0 % 1025.3 hPa 0 C deg
1788519481 970.5 hPa 27.2 C deg 0 % 1025.4 hPa 0 C deg
*Used Equation Coefficients:
Press: 0, 1, 0
Temp.in: 0, 1, 0
Hum: 0, 1, 0
QNH: 0, 1, 0
Temp.out: 0, 1, 0

  • The parameter names for the analog channels will be Value1, Value2, Value3 (up to Value5) if station has not sent a PARAM-packet that specifies the parameter names for each analog channel.
  • Each analog value is a decimal number between 000 and 255 (according to APRS specifications). The receiver use the telemetry equation coefficientsto to restore the original sensor values. If no EQNS-packet with equation coefficients is sent we will show the values as is (this corresponds to the equation coefficients a=0, b=1 and c=0).
    The sent equation coefficients is used in the equation: a * value2 + b * value + c.
  • The units for the analog values will not be shown if station has not sent a UNIT-packet specifying what unit's to use.
  • The parameter names for the digital bits will be Bit1, Bit2, Bit3 (up to Bit8) if station has not sent a PARAM-packet that specifies the parameter names for each digital bit.
  • All bit labels will be named "On" if station has not sent a UNIT-packet that specifies the label of each bit.
  • A bit is considered to be On when the bit is 1 if station has not sent a BITS-packet that specifies another "Bit sense" (a BITS-packet specify the state of the bits that match the BIT labels)